sensor_id;sensor_type;location;lat;lon;timestamp;temperature;humidity
65824;SHT31;52585;47.566;19.056;2023-02-26T00:00:02;6.67;60.28
65824;SHT31;52585;47.566;19.056;2023-02-26T00:02:39;6.67;60.40
65824;SHT31;52585;47.566;19.056;2023-02-26T00:05:06;6.65;60.28
65824;SHT31;52585;47.566;19.056;2023-02-26T00:07:33;6.64;60.26
65824;SHT31;52585;47.566;19.056;2023-02-26T00:09:59;6.64;60.19
65824;SHT31;52585;47.566;19.056;2023-02-26T00:12:28;6.62;60.21
65824;SHT31;52585;47.566;19.056;2023-02-26T00:14:55;6.61;60.20
65824;SHT31;52585;47.566;19.056;2023-02-26T00:20:06;6.55;60.13
65824;SHT31;52585;47.566;19.056;2023-02-26T00:22:36;6.54;60.14
65824;SHT31;52585;47.566;19.056;2023-02-26T00:25:03;6.52;60.17
65824;SHT31;52585;47.566;19.056;2023-02-26T00:27:29;6.53;60.16
65824;SHT31;52585;47.566;19.056;2023-02-26T00:29:55;6.51;60.20
65824;SHT31;52585;47.566;19.056;2023-02-26T00:32:21;6.48;60.19
65824;SHT31;52585;47.566;19.056;2023-02-26T00:34:48;6.49;60.19
65824;SHT31;52585;47.566;19.056;2023-02-26T00:42:58;6.46;60.22
65824;SHT31;52585;47.566;19.056;2023-02-26T00:45:24;6.47;60.16
65824;SHT31;52585;47.566;19.056;2023-02-26T00:47:52;6.48;60.19
65824;SHT31;52585;47.566;19.056;2023-02-26T00:51:31;6.51;60.19
65824;SHT31;52585;47.566;19.056;2023-02-26T00:53:48;6.48;60.25
65824;SHT31;52585;47.566;19.056;2023-02-26T00:56:43;6.48;60.23
65824;SHT31;52585;47.566;19.056;2023-02-26T00:59:09;6.47;60.26
65824;SHT31;52585;47.566;19.056;2023-02-26T01:01:34;6.49;60.15
65824;SHT31;52585;47.566;19.056;2023-02-26T01:04:00;6.50;60.10
65824;SHT31;52585;47.566;19.056;2023-02-26T01:06:27;6.50;60.10
65824;SHT31;52585;47.566;19.056;2023-02-26T01:09:07;6.50;60.09
65824;SHT31;52585;47.566;19.056;2023-02-26T01:11:37;6.49;60.05
65824;SHT31;52585;47.566;19.056;2023-02-26T01:14:04;6.46;60.10
65824;SHT31;52585;47.566;19.056;2023-02-26T01:16:37;6.45;60.11
65824;SHT31;52585;47.566;19.056;2023-02-26T01:25:14;6.38;60.33
65824;SHT31;52585;47.566;19.056;2023-02-26T01:27:49;6.36;60.35
65824;SHT31;52585;47.566;19.056;2023-02-26T01:30:15;6.35;60.31
65824;SHT31;52585;47.566;19.056;2023-02-26T01:32:43;6.34;60.32
65824;SHT31;52585;47.566;19.056;2023-02-26T01:35:36;6.33;60.32
65824;SHT31;52585;47.566;19.056;2023-02-26T01:44:09;6.27;60.35
65824;SHT31;52585;47.566;19.056;2023-02-26T01:47:06;6.25;60.36
65824;SHT31;52585;47.566;19.056;2023-02-26T01:50:17;6.23;60.42
65824;SHT31;52585;47.566;19.056;2023-02-26T01:55:19;6.20;60.40
65824;SHT31;52585;47.566;19.056;2023-02-26T01:57:49;6.19;60.52
65824;SHT31;52585;47.566;19.056;2023-02-26T02:00:16;6.15;60.60
65824;SHT31;52585;47.566;19.056;2023-02-26T02:02:43;6.13;60.59
65824;SHT31;52585;47.566;19.056;2023-02-26T02:05:14;6.12;60.59
65824;SHT31;52585;47.566;19.056;2023-02-26T02:07:52;6.12;60.60
65824;SHT31;52585;47.566;19.056;2023-02-26T02:10:18;6.09;60.67
65824;SHT31;52585;47.566;19.056;2023-02-26T02:12:50;6.09;60.61
65824;SHT31;52585;47.566;19.056;2023-02-26T02:21:24;6.04;60.71
65824;SHT31;52585;47.566;19.056;2023-02-26T02:26:59;5.99;60.81
65824;SHT31;52585;47.566;19.056;2023-02-26T02:32:50;6.01;60.79
65824;SHT31;52585;47.566;19.056;2023-02-26T02:35:31;6.01;60.78
65824;SHT31;52585;47.566;19.056;2023-02-26T02:38:53;6.01;60.74
65824;SHT31;52585;47.566;19.056;2023-02-26T02:41:24;6.00;60.82
65824;SHT31;52585;47.566;19.056;2023-02-26T02:44:02;5.98;60.89
65824;SHT31;52585;47.566;19.056;2023-02-26T02:46:35;5.97;61.05
65824;SHT31;52585;47.566;19.056;2023-02-26T02:49:09;5.94;61.06
65824;SHT31;52585;47.566;19.056;2023-02-26T02:51:48;5.94;61.03
65824;SHT31;52585;47.566;19.056;2023-02-26T02:54:30;5.91;61.08
65824;SHT31;52585;47.566;19.056;2023-02-26T02:57:16;5.88;61.23
65824;SHT31;52585;47.566;19.056;2023-02-26T02:59:51;5.86;61.43
65824;SHT31;52585;47.566;19.056;2023-02-26T03:02:27;5.84;61.43
65824;SHT31;52585;47.566;19.056;2023-02-26T03:05:26;5.85;61.43
65824;SHT31;52585;47.566;19.056;2023-02-26T03:07:54;5.87;61.51
65824;SHT31;52585;47.566;19.056;2023-02-26T03:10:25;5.85;61.54
65824;SHT31;52585;47.566;19.056;2023-02-26T03:12:52;5.84;61.51
65824;SHT31;52585;47.566;19.056;2023-02-26T03:15:20;5.85;61.40
65824;SHT31;52585;47.566;19.056;2023-02-26T03:18:17;5.84;61.46
65824;SHT31;52585;47.566;19.056;2023-02-26T03:24:13;5.84;61.23
65824;SHT31;52585;47.566;19.056;2023-02-26T03:26:55;5.79;61.25
65824;SHT31;52585;47.566;19.056;2023-02-26T03:30:01;5.79;61.29
65824;SHT31;52585;47.566;19.056;2023-02-26T03:41:13;5.71;61.43
65824;SHT31;52585;47.566;19.056;2023-02-26T03:43:48;5.71;61.48
65824;SHT31;52585;47.566;19.056;2023-02-26T03:46:31;5.72;61.46
65824;SHT31;52585;47.566;19.056;2023-02-26T03:49:14;5.70;61.49
65824;SHT31;52585;47.566;19.056;2023-02-26T03:51:49;5.69;61.44
65824;SHT31;52585;47.566;19.056;2023-02-26T03:54:27;5.66;61.64
65824;SHT31;52585;47.566;19.056;2023-02-26T03:57:07;5.65;61.69
65824;SHT31;52585;47.566;19.056;2023-02-26T03:59:33;5.64;61.71
65824;SHT31;52585;47.566;19.056;2023-02-26T04:02:04;5.62;61.75
65824;SHT31;52585;47.566;19.056;2023-02-26T04:04:40;5.59;61.80
65824;SHT31;52585;47.566;19.056;2023-02-26T04:07:19;5.57;61.92
65824;SHT31;52585;47.566;19.056;2023-02-26T04:09:47;5.55;61.91
65824;SHT31;52585;47.566;19.056;2023-02-26T04:12:19;5.54;62.00
65824;SHT31;52585;47.566;19.056;2023-02-26T04:14:54;5.53;62.09
65824;SHT31;52585;47.566;19.056;2023-02-26T04:17:22;5.52;62.36
65824;SHT31;52585;47.566;19.056;2023-02-26T04:19:48;5.52;62.39
65824;SHT31;52585;47.566;19.056;2023-02-26T04:22:13;5.49;62.54
65824;SHT31;52585;47.566;19.056;2023-02-26T04:24:40;5.48;62.47
65824;SHT31;52585;47.566;19.056;2023-02-26T04:27:06;5.49;62.35
65824;SHT31;52585;47.566;19.056;2023-02-26T04:29:31;5.49;62.32
65824;SHT31;52585;47.566;19.056;2023-02-26T04:31:57;5.48;62.21
65824;SHT31;52585;47.566;19.056;2023-02-26T04:34:23;5.46;62.26
65824;SHT31;52585;47.566;19.056;2023-02-26T04:36:49;5.41;62.30
65824;SHT31;52585;47.566;19.056;2023-02-26T04:39:14;5.37;62.48
65824;SHT31;52585;47.566;19.056;2023-02-26T04:41:40;5.35;62.40
65824;SHT31;52585;47.566;19.056;2023-02-26T04:44:06;5.34;62.40
65824;SHT31;52585;47.566;19.056;2023-02-26T04:46:31;5.34;62.46
65824;SHT31;52585;47.566;19.056;2023-02-26T04:48:57;5.34;62.50
65824;SHT31;52585;47.566;19.056;2023-02-26T04:51:23;5.34;62.49
65824;SHT31;52585;47.566;19.056;2023-02-26T04:53:49;5.34;62.49
65824;SHT31;52585;47.566;19.056;2023-02-26T04:56:15;5.33;62.54
65824;SHT31;52585;47.566;19.056;2023-02-26T04:58:41;5.32;62.50
65824;SHT31;52585;47.566;19.056;2023-02-26T05:01:07;5.31;62.53
65824;SHT31;52585;47.566;19.056;2023-02-26T05:03:32;5.29;62.53
65824;SHT31;52585;47.566;19.056;2023-02-26T05:05:58;5.28;62.54
65824;SHT31;52585;47.566;19.056;2023-02-26T05:08:24;5.24;62.81
65824;SHT31;52585;47.566;19.056;2023-02-26T05:10:50;5.23;62.75
65824;SHT31;52585;47.566;19.056;2023-02-26T05:13:17;5.26;62.83
65824;SHT31;52585;47.566;19.056;2023-02-26T05:15:44;5.27;62.98
65824;SHT31;52585;47.566;19.056;2023-02-26T05:18:09;5.27;62.97
65824;SHT31;52585;47.566;19.056;2023-02-26T05:20:35;5.29;62.90
65824;SHT31;52585;47.566;19.056;2023-02-26T05:23:01;5.29;62.90
65824;SHT31;52585;47.566;19.056;2023-02-26T05:25:27;5.28;62.84
65824;SHT31;52585;47.566;19.056;2023-02-26T05:27:53;5.27;62.86
65824;SHT31;52585;47.566;19.056;2023-02-26T05:30:19;5.27;62.79
65824;SHT31;52585;47.566;19.056;2023-02-26T05:32:46;5.28;62.74
65824;SHT31;52585;47.566;19.056;2023-02-26T05:35:12;5.28;62.72
65824;SHT31;52585;47.566;19.056;2023-02-26T05:37:38;5.27;62.73
65824;SHT31;52585;47.566;19.056;2023-02-26T05:40:04;5.26;62.72
65824;SHT31;52585;47.566;19.056;2023-02-26T05:42:36;5.25;62.72
65824;SHT31;52585;47.566;19.056;2023-02-26T05:45:03;5.23;62.74
65824;SHT31;52585;47.566;19.056;2023-02-26T05:47:32;5.22;62.74
65824;SHT31;52585;47.566;19.056;2023-02-26T05:49:58;5.20;62.83
65824;SHT31;52585;47.566;19.056;2023-02-26T05:52:24;5.21;62.87
65824;SHT31;52585;47.566;19.056;2023-02-26T05:54:49;5.19;62.87
65824;SHT31;52585;47.566;19.056;2023-02-26T05:57:15;5.19;62.88
65824;SHT31;52585;47.566;19.056;2023-02-26T05:59:40;5.19;62.90
65824;SHT31;52585;47.566;19.056;2023-02-26T06:02:06;5.19;62.88
65824;SHT31;52585;47.566;19.056;2023-02-26T06:04:32;5.20;62.88
65824;SHT31;52585;47.566;19.056;2023-02-26T06:06:58;5.21;62.88
65824;SHT31;52585;47.566;19.056;2023-02-26T06:09:24;5.22;62.86
65824;SHT31;52585;47.566;19.056;2023-02-26T06:11:49;5.22;62.94
65824;SHT31;52585;47.566;19.056;2023-02-26T06:14:15;5.18;63.10
65824;SHT31;52585;47.566;19.056;2023-02-26T06:16:41;5.18;63.20
65824;SHT31;52585;47.566;19.056;2023-02-26T06:19:06;5.18;63.26
65824;SHT31;52585;47.566;19.056;2023-02-26T06:21:32;5.17;63.29
65824;SHT31;52585;47.566;19.056;2023-02-26T06:23:57;5.17;63.24
65824;SHT31;52585;47.566;19.056;2023-02-26T06:26:23;5.14;63.40
65824;SHT31;52585;47.566;19.056;2023-02-26T06:28:48;5.14;63.37
65824;SHT31;52585;47.566;19.056;2023-02-26T06:31:14;5.15;63.28
65824;SHT31;52585;47.566;19.056;2023-02-26T06:33:40;5.16;63.26
65824;SHT31;52585;47.566;19.056;2023-02-26T06:36:05;5.17;63.34
65824;SHT31;52585;47.566;19.056;2023-02-26T06:38:32;5.18;63.33
65824;SHT31;52585;47.566;19.056;2023-02-26T06:40:57;5.17;63.26
65824;SHT31;52585;47.566;19.056;2023-02-26T06:43:23;5.17;63.32
65824;SHT31;52585;47.566;19.056;2023-02-26T06:45:49;5.17;63.43
65824;SHT31;52585;47.566;19.056;2023-02-26T06:48:15;5.16;63.41
65824;SHT31;52585;47.566;19.056;2023-02-26T06:50:41;5.17;63.48
65824;SHT31;52585;47.566;19.056;2023-02-26T06:53:06;5.17;63.53
65824;SHT31;52585;47.566;19.056;2023-02-26T06:55:32;5.17;63.51
65824;SHT31;52585;47.566;19.056;2023-02-26T06:57:58;5.17;63.61
65824;SHT31;52585;47.566;19.056;2023-02-26T07:00:23;5.17;63.63
65824;SHT31;52585;47.566;19.056;2023-02-26T07:02:51;5.20;63.76
65824;SHT31;52585;47.566;19.056;2023-02-26T07:05:17;5.23;63.79
65824;SHT31;52585;47.566;19.056;2023-02-26T07:07:43;5.26;63.78
65824;SHT31;52585;47.566;19.056;2023-02-26T07:10:09;5.28;63.72
65824;SHT31;52585;47.566;19.056;2023-02-26T07:12:36;5.31;63.59
65824;SHT31;52585;47.566;19.056;2023-02-26T07:15:03;5.33;63.58
65824;SHT31;52585;47.566;19.056;2023-02-26T07:17:31;5.36;63.52
65824;SHT31;52585;47.566;19.056;2023-02-26T07:19:56;5.37;63.51
65824;SHT31;52585;47.566;19.056;2023-02-26T07:22:22;5.39;63.51
65824;SHT31;52585;47.566;19.056;2023-02-26T07:24:47;5.40;63.57
65824;SHT31;52585;47.566;19.056;2023-02-26T07:27:14;5.41;63.53
65824;SHT31;52585;47.566;19.056;2023-02-26T07:29:39;5.43;63.54
65824;SHT31;52585;47.566;19.056;2023-02-26T07:32:05;5.42;63.53
65824;SHT31;52585;47.566;19.056;2023-02-26T07:34:31;5.42;63.80
65824;SHT31;52585;47.566;19.056;2023-02-26T07:36:57;5.44;63.68
65824;SHT31;52585;47.566;19.056;2023-02-26T07:39:23;5.45;63.49
65824;SHT31;52585;47.566;19.056;2023-02-26T07:41:51;5.47;63.57
65824;SHT31;52585;47.566;19.056;2023-02-26T07:44:17;5.49;63.61
65824;SHT31;52585;47.566;19.056;2023-02-26T07:46:43;5.51;63.64
65824;SHT31;52585;47.566;19.056;2023-02-26T07:49:09;5.55;63.83
65824;SHT31;52585;47.566;19.056;2023-02-26T07:51:35;5.58;63.86
65824;SHT31;52585;47.566;19.056;2023-02-26T07:54:01;5.61;63.91
65824;SHT31;52585;47.566;19.056;2023-02-26T07:56:27;5.65;63.95
65824;SHT31;52585;47.566;19.056;2023-02-26T07:58:53;5.68;63.85
65824;SHT31;52585;47.566;19.056;2023-02-26T08:01:20;5.71;63.87
65824;SHT31;52585;47.566;19.056;2023-02-26T08:03:45;5.72;63.72
65824;SHT31;52585;47.566;19.056;2023-02-26T08:06:11;5.76;63.64
65824;SHT31;52585;47.566;19.056;2023-02-26T08:08:37;5.77;63.47
65824;SHT31;52585;47.566;19.056;2023-02-26T08:11:02;5.79;63.42
65824;SHT31;52585;47.566;19.056;2023-02-26T08:13:28;5.80;63.42
65824;SHT31;52585;47.566;19.056;2023-02-26T08:15:54;5.83;63.54
65824;SHT31;52585;47.566;19.056;2023-02-26T08:18:20;5.86;63.67
65824;SHT31;52585;47.566;19.056;2023-02-26T08:20:45;5.90;63.58
65824;SHT31;52585;47.566;19.056;2023-02-26T08:23:11;5.94;63.54
65824;SHT31;52585;47.566;19.056;2023-02-26T08:25:37;5.97;63.61
65824;SHT31;52585;47.566;19.056;2023-02-26T08:28:03;6.01;63.47
65824;SHT31;52585;47.566;19.056;2023-02-26T08:30:29;6.03;63.41
65824;SHT31;52585;47.566;19.056;2023-02-26T08:32:55;6.04;63.54
65824;SHT31;52585;47.566;19.056;2023-02-26T08:35:21;6.05;63.30
65824;SHT31;52585;47.566;19.056;2023-02-26T08:37:47;6.07;63.11
65824;SHT31;52585;47.566;19.056;2023-02-26T08:40:13;6.07;63.04
65824;SHT31;52585;47.566;19.056;2023-02-26T08:42:39;6.09;63.12
65824;SHT31;52585;47.566;19.056;2023-02-26T08:45:05;6.11;63.10
65824;SHT31;52585;47.566;19.056;2023-02-26T08:47:32;6.14;63.01
65824;SHT31;52585;47.566;19.056;2023-02-26T08:49:58;6.15;62.92
65824;SHT31;52585;47.566;19.056;2023-02-26T08:52:23;6.17;62.82
65824;SHT31;52585;47.566;19.056;2023-02-26T08:54:49;6.18;62.82
65824;SHT31;52585;47.566;19.056;2023-02-26T08:57:16;6.20;62.74
65824;SHT31;52585;47.566;19.056;2023-02-26T08:59:42;6.21;62.70
65824;SHT31;52585;47.566;19.056;2023-02-26T09:02:09;6.23;62.79
65824;SHT31;52585;47.566;19.056;2023-02-26T09:04:36;6.23;62.40
65824;SHT31;52585;47.566;19.056;2023-02-26T09:07:02;6.24;62.54
65824;SHT31;52585;47.566;19.056;2023-02-26T09:09:28;6.27;62.49
65824;SHT31;52585;47.566;19.056;2023-02-26T09:11:53;6.29;62.40
65824;SHT31;52585;47.566;19.056;2023-02-26T09:14:19;6.31;62.23
65824;SHT31;52585;47.566;19.056;2023-02-26T09:16:45;6.33;62.18
65824;SHT31;52585;47.566;19.056;2023-02-26T09:19:10;6.34;61.90
65824;SHT31;52585;47.566;19.056;2023-02-26T09:21:36;6.35;61.82
65824;SHT31;52585;47.566;19.056;2023-02-26T09:24:02;6.37;61.37
65824;SHT31;52585;47.566;19.056;2023-02-26T09:26:28;6.39;60.66
65824;SHT31;52585;47.566;19.056;2023-02-26T09:28:53;6.43;60.94
65824;SHT31;52585;47.566;19.056;2023-02-26T09:31:19;6.47;60.68
65824;SHT31;52585;47.566;19.056;2023-02-26T09:33:44;6.49;60.50
65824;SHT31;52585;47.566;19.056;2023-02-26T09:36:10;6.51;60.27
65824;SHT31;52585;47.566;19.056;2023-02-26T09:38:36;6.51;60.16
65824;SHT31;52585;47.566;19.056;2023-02-26T09:41:03;6.52;60.09
65824;SHT31;52585;47.566;19.056;2023-02-26T09:43:52;6.53;59.91
65824;SHT31;52585;47.566;19.056;2023-02-26T09:55:05;6.69;59.61
65824;SHT31;52585;47.566;19.056;2023-02-26T09:57:39;6.71;59.43
65824;SHT31;52585;47.566;19.056;2023-02-26T10:00:31;6.73;59.05
65824;SHT31;52585;47.566;19.056;2023-02-26T10:05:45;6.83;58.64
65824;SHT31;52585;47.566;19.056;2023-02-26T10:08:16;6.86;58.25
65824;SHT31;52585;47.566;19.056;2023-02-26T10:10:53;6.89;58.22
65824;SHT31;52585;47.566;19.056;2023-02-26T10:16:16;6.94;58.05
65824;SHT31;52585;47.566;19.056;2023-02-26T10:18:54;6.96;58.12
65824;SHT31;52585;47.566;19.056;2023-02-26T10:24:20;7.01;57.77
65824;SHT31;52585;47.566;19.056;2023-02-26T10:26:59;7.05;57.89
65824;SHT31;52585;47.566;19.056;2023-02-26T10:32:28;7.11;58.04
65824;SHT31;52585;47.566;19.056;2023-02-26T10:35:08;7.14;58.02
65824;SHT31;52585;47.566;19.056;2023-02-26T10:37:45;7.17;58.13
65824;SHT31;52585;47.566;19.056;2023-02-26T10:52:09;7.38;57.97
65824;SHT31;52585;47.566;19.056;2023-02-26T10:57:29;7.48;57.66
65824;SHT31;52585;47.566;19.056;2023-02-26T11:00:02;7.51;57.59
65824;SHT31;52585;47.566;19.056;2023-02-26T11:02:32;7.54;57.63
65824;SHT31;52585;47.566;19.056;2023-02-26T11:05:16;7.58;57.67
65824;SHT31;52585;47.566;19.056;2023-02-26T11:07:46;7.62;57.71
65824;SHT31;52585;47.566;19.056;2023-02-26T11:10:22;7.68;57.58
65824;SHT31;52585;47.566;19.056;2023-02-26T11:12:54;7.72;57.42
65824;SHT31;52585;47.566;19.056;2023-02-26T11:15:24;7.75;57.39
65824;SHT31;52585;47.566;19.056;2023-02-26T11:17:53;7.78;57.38
65824;SHT31;52585;47.566;19.056;2023-02-26T11:20:30;7.80;57.22
65824;SHT31;52585;47.566;19.056;2023-02-26T11:23:03;7.82;57.28
65824;SHT31;52585;47.566;19.056;2023-02-26T11:25:36;7.84;57.29
65824;SHT31;52585;47.566;19.056;2023-02-26T11:28:04;7.87;57.23
65824;SHT31;52585;47.566;19.056;2023-02-26T11:30:46;7.91;57.43
65824;SHT31;52585;47.566;19.056;2023-02-26T11:33:37;7.95;57.10
65824;SHT31;52585;47.566;19.056;2023-02-26T11:36:10;7.97;56.85
65824;SHT31;52585;47.566;19.056;2023-02-26T11:38:43;7.98;56.91
65824;SHT31;52585;47.566;19.056;2023-02-26T11:41:16;7.97;56.98
65824;SHT31;52585;47.566;19.056;2023-02-26T11:43:44;8.00;56.84
65824;SHT31;52585;47.566;19.056;2023-02-26T11:46:25;8.01;56.85
65824;SHT31;52585;47.566;19.056;2023-02-26T11:48:52;8.00;56.73
65824;SHT31;52585;47.566;19.056;2023-02-26T11:51:24;8.00;56.65
65824;SHT31;52585;47.566;19.056;2023-02-26T11:53:55;8.01;56.70
65824;SHT31;52585;47.566;19.056;2023-02-26T11:56:34;8.03;56.84
65824;SHT31;52585;47.566;19.056;2023-02-26T12:01:46;8.07;57.27
65824;SHT31;52585;47.566;19.056;2023-02-26T12:04:17;8.10;57.03
65824;SHT31;52585;47.566;19.056;2023-02-26T12:06:48;8.10;56.89
65824;SHT31;52585;47.566;19.056;2023-02-26T12:09:18;8.13;56.91
65824;SHT31;52585;47.566;19.056;2023-02-26T12:23:33;8.25;56.70
65824;SHT31;52585;47.566;19.056;2023-02-26T12:32:03;8.28;56.58
65824;SHT31;52585;47.566;19.056;2023-02-26T12:37:52;8.32;56.49
65824;SHT31;52585;47.566;19.056;2023-02-26T12:55:29;8.39;56.16
65824;SHT31;52585;47.566;19.056;2023-02-26T12:58:29;8.40;56.13
65824;SHT31;52585;47.566;19.056;2023-02-26T13:07:41;8.43;55.70
65824;SHT31;52585;47.566;19.056;2023-02-26T13:10:15;8.43;55.58
65824;SHT31;52585;47.566;19.056;2023-02-26T13:16:00;8.42;55.43
65824;SHT31;52585;47.566;19.056;2023-02-26T13:21:34;8.40;55.60
65824;SHT31;52585;47.566;19.056;2023-02-26T13:24:11;8.40;55.65
65824;SHT31;52585;47.566;19.056;2023-02-26T13:27:05;8.38;55.51
65824;SHT31;52585;47.566;19.056;2023-02-26T13:29:36;8.38;55.63
65824;SHT31;52585;47.566;19.056;2023-02-26T13:32:22;8.37;55.68
65824;SHT31;52585;47.566;19.056;2023-02-26T13:34:55;8.36;55.76
65824;SHT31;52585;47.566;19.056;2023-02-26T13:37:29;8.36;55.61
65824;SHT31;52585;47.566;19.056;2023-02-26T13:53:58;8.29;55.35
65824;SHT31;52585;47.566;19.056;2023-02-26T13:56:42;8.27;55.50
65824;SHT31;52585;47.566;19.056;2023-02-26T14:04:51;8.19;55.33
65824;SHT31;52585;47.566;19.056;2023-02-26T14:13:43;8.10;55.78
65824;SHT31;52585;47.566;19.056;2023-02-26T14:16:28;8.09;55.93
65824;SHT31;52585;47.566;19.056;2023-02-26T14:27:38;8.05;55.94
65824;SHT31;52585;47.566;19.056;2023-02-26T14:35:40;8.04;56.07
65824;SHT31;52585;47.566;19.056;2023-02-26T14:40:50;8.02;56.00
65824;SHT31;52585;47.566;19.056;2023-02-26T14:43:39;8.02;56.11
65824;SHT31;52585;47.566;19.056;2023-02-26T14:46:15;8.00;56.29
65824;SHT31;52585;47.566;19.056;2023-02-26T14:48:43;7.98;56.45
65824;SHT31;52585;47.566;19.056;2023-02-26T14:51:28;7.98;56.30
65824;SHT31;52585;47.566;19.056;2023-02-26T14:59:43;7.94;56.04
65824;SHT31;52585;47.566;19.056;2023-02-26T15:02:32;7.94;56.02
65824;SHT31;52585;47.566;19.056;2023-02-26T15:11:11;7.94;56.22
65824;SHT31;52585;47.566;19.056;2023-02-26T15:17:02;7.91;56.43
65824;SHT31;52585;47.566;19.056;2023-02-26T15:20:29;7.90;56.46
65824;SHT31;52585;47.566;19.056;2023-02-26T15:25:38;7.89;56.32
65824;SHT31;52585;47.566;19.056;2023-02-26T15:28:21;7.88;56.31
65824;SHT31;52585;47.566;19.056;2023-02-26T15:30:55;7.86;56.40
65824;SHT31;52585;47.566;19.056;2023-02-26T15:33:25;7.86;56.36
65824;SHT31;52585;47.566;19.056;2023-02-26T15:35:54;7.86;56.31
65824;SHT31;52585;47.566;19.056;2023-02-26T15:38:24;7.88;56.31
65824;SHT31;52585;47.566;19.056;2023-02-26T15:40:54;7.89;56.23
65824;SHT31;52585;47.566;19.056;2023-02-26T15:43:27;7.87;55.92
65824;SHT31;52585;47.566;19.056;2023-02-26T15:45:54;7.88;56.01
65824;SHT31;52585;47.566;19.056;2023-02-26T15:48:35;7.89;56.06
65824;SHT31;52585;47.566;19.056;2023-02-26T15:51:09;7.90;55.71
65824;SHT31;52585;47.566;19.056;2023-02-26T15:53:47;7.93;55.72
65824;SHT31;52585;47.566;19.056;2023-02-26T15:56:19;7.98;55.65
65824;SHT31;52585;47.566;19.056;2023-02-26T15:58:58;8.01;55.43
65824;SHT31;52585;47.566;19.056;2023-02-26T16:01:31;8.03;55.21
65824;SHT31;52585;47.566;19.056;2023-02-26T16:04:03;8.02;55.13
65824;SHT31;52585;47.566;19.056;2023-02-26T16:06:39;8.02;54.95
65824;SHT31;52585;47.566;19.056;2023-02-26T16:10:43;8.01;54.99
65824;SHT31;52585;47.566;19.056;2023-02-26T16:13:13;8.03;54.97
65824;SHT31;52585;47.566;19.056;2023-02-26T16:15:46;8.05;54.81
65824;SHT31;52585;47.566;19.056;2023-02-26T16:18:13;8.04;54.70
65824;SHT31;52585;47.566;19.056;2023-02-26T16:20:48;8.03;54.98
65824;SHT31;52585;47.566;19.056;2023-02-26T16:23:23;8.02;54.78
65824;SHT31;52585;47.566;19.056;2023-02-26T16:26:14;8.00;54.81
65824;SHT31;52585;47.566;19.056;2023-02-26T16:28:53;7.99;54.82
65824;SHT31;52585;47.566;19.056;2023-02-26T16:31:29;7.97;54.89
65824;SHT31;52585;47.566;19.056;2023-02-26T16:42:51;7.90;55.20
65824;SHT31;52585;47.566;19.056;2023-02-26T16:48:14;7.88;55.35
65824;SHT31;52585;47.566;19.056;2023-02-26T16:51:23;7.86;55.45
65824;SHT31;52585;47.566;19.056;2023-02-26T16:53:58;7.84;55.42
65824;SHT31;52585;47.566;19.056;2023-02-26T16:56:35;7.82;55.34
65824;SHT31;52585;47.566;19.056;2023-02-26T17:02:26;7.78;55.54
65824;SHT31;52585;47.566;19.056;2023-02-26T17:05:00;7.78;55.61
65824;SHT31;52585;47.566;19.056;2023-02-26T17:07:47;7.76;55.70
65824;SHT31;52585;47.566;19.056;2023-02-26T17:10:23;7.74;55.67
65824;SHT31;52585;47.566;19.056;2023-02-26T17:13:09;7.72;55.73
65824;SHT31;52585;47.566;19.056;2023-02-26T17:15:45;7.71;55.82
65824;SHT31;52585;47.566;19.056;2023-02-26T17:18:13;7.69;55.80
65824;SHT31;52585;47.566;19.056;2023-02-26T17:20:40;7.70;55.83
65824;SHT31;52585;47.566;19.056;2023-02-26T17:23:09;7.70;55.73
65824;SHT31;52585;47.566;19.056;2023-02-26T17:25:41;7.69;55.86
65824;SHT31;52585;47.566;19.056;2023-02-26T17:28:15;7.69;55.86
65824;SHT31;52585;47.566;19.056;2023-02-26T17:30:53;7.65;55.92
65824;SHT31;52585;47.566;19.056;2023-02-26T17:33:20;7.62;55.97
65824;SHT31;52585;47.566;19.056;2023-02-26T17:35:48;7.59;55.97
65824;SHT31;52585;47.566;19.056;2023-02-26T17:38:16;7.58;56.03
65824;SHT31;52585;47.566;19.056;2023-02-26T17:40:43;7.56;55.98
65824;SHT31;52585;47.566;19.056;2023-02-26T17:43:11;7.55;56.09
65824;SHT31;52585;47.566;19.056;2023-02-26T17:45:39;7.53;56.01
65824;SHT31;52585;47.566;19.056;2023-02-26T17:48:06;7.51;56.15
65824;SHT31;52585;47.566;19.056;2023-02-26T17:53:20;7.45;56.07
65824;SHT31;52585;47.566;19.056;2023-02-26T17:55:53;7.41;56.17
65824;SHT31;52585;47.566;19.056;2023-02-26T17:58:30;7.40;56.31
65824;SHT31;52585;47.566;19.056;2023-02-26T18:01:00;7.40;56.27
65824;SHT31;52585;47.566;19.056;2023-02-26T18:03:30;7.39;56.21
65824;SHT31;52585;47.566;19.056;2023-02-26T18:05:56;7.38;56.16
65824;SHT31;52585;47.566;19.056;2023-02-26T18:08:27;7.35;56.19
65824;SHT31;52585;47.566;19.056;2023-02-26T18:10:57;7.35;56.26
65824;SHT31;52585;47.566;19.056;2023-02-26T18:13:25;7.35;56.34
65824;SHT31;52585;47.566;19.056;2023-02-26T18:15:53;7.33;56.30
65824;SHT31;52585;47.566;19.056;2023-02-26T18:18:23;7.33;56.37
65824;SHT31;52585;47.566;19.056;2023-02-26T18:20:50;7.33;56.34
65824;SHT31;52585;47.566;19.056;2023-02-26T18:23:18;7.32;56.22
65824;SHT31;52585;47.566;19.056;2023-02-26T18:25:46;7.30;56.14
65824;SHT31;52585;47.566;19.056;2023-02-26T18:28:20;7.29;56.06
65824;SHT31;52585;47.566;19.056;2023-02-26T18:30:51;7.27;56.09
65824;SHT31;52585;47.566;19.056;2023-02-26T18:33:18;7.26;56.20
65824;SHT31;52585;47.566;19.056;2023-02-26T18:35:50;7.26;56.15
65824;SHT31;52585;47.566;19.056;2023-02-26T18:38:22;7.26;56.23
65824;SHT31;52585;47.566;19.056;2023-02-26T18:40:54;7.25;56.18
65824;SHT31;52585;47.566;19.056;2023-02-26T18:43:20;7.23;56.10
65824;SHT31;52585;47.566;19.056;2023-02-26T18:45:48;7.22;56.26
65824;SHT31;52585;47.566;19.056;2023-02-26T18:48:17;7.20;56.20
65824;SHT31;52585;47.566;19.056;2023-02-26T18:50:47;7.18;56.21
65824;SHT31;52585;47.566;19.056;2023-02-26T18:53:15;7.17;56.04
65824;SHT31;52585;47.566;19.056;2023-02-26T18:55:42;7.16;56.24
65824;SHT31;52585;47.566;19.056;2023-02-26T18:58:12;7.14;56.22
65824;SHT31;52585;47.566;19.056;2023-02-26T19:00:38;7.13;56.12
65824;SHT31;52585;47.566;19.056;2023-02-26T19:03:04;7.12;56.33
65824;SHT31;52585;47.566;19.056;2023-02-26T19:05:30;7.10;56.32
65824;SHT31;52585;47.566;19.056;2023-02-26T19:07:56;7.09;56.49
65824;SHT31;52585;47.566;19.056;2023-02-26T19:10:24;7.09;56.41
65824;SHT31;52585;47.566;19.056;2023-02-26T19:12:53;7.09;56.35
65824;SHT31;52585;47.566;19.056;2023-02-26T19:15:20;7.09;56.44
65824;SHT31;52585;47.566;19.056;2023-02-26T19:17:48;7.10;56.63
65824;SHT31;52585;47.566;19.056;2023-02-26T19:20:16;7.10;56.76
65824;SHT31;52585;47.566;19.056;2023-02-26T19:22:43;7.11;56.64
65824;SHT31;52585;47.566;19.056;2023-02-26T19:25:11;7.11;56.88
65824;SHT31;52585;47.566;19.056;2023-02-26T19:27:37;7.11;56.91